createdAt,value
2022-12-29T00:01:58.314Z,38.40
2022-12-29T00:04:27.397Z,37.90
2022-12-29T00:06:55.554Z,37.90
2022-12-29T00:09:23.555Z,37.90
2022-12-29T00:11:51.967Z,37.40
2022-12-29T00:14:38.824Z,38.30
2022-12-29T00:17:06.790Z,38.70
2022-12-29T00:19:52.719Z,38.60
2022-12-29T00:22:38.204Z,38.80
2022-12-29T00:25:25.192Z,38.70
2022-12-29T00:28:10.602Z,38.70
2022-12-29T00:30:57.640Z,38.20
2022-12-29T00:33:48.122Z,37.40
2022-12-29T00:36:20.305Z,37.30
2022-12-29T00:39:12.617Z,36.60
2022-12-29T00:41:58.126Z,37.10
2022-12-29T00:44:26.081Z,37.30
2022-12-29T00:46:55.456Z,37.30
2022-12-29T00:49:32.721Z,36.90
2022-12-29T00:52:03.434Z,36.80
2022-12-29T00:54:34.841Z,37.20
2022-12-29T00:57:03.660Z,37.30
2022-12-29T00:59:32.390Z,37.60
2022-12-29T01:02:01.723Z,37.50
2022-12-29T01:04:30.732Z,37.00
2022-12-29T01:06:58.635Z,37.40
2022-12-29T01:09:44.400Z,37.40
2022-12-29T01:12:12.695Z,37.80
2022-12-29T01:14:41.110Z,38.40
2022-12-29T01:17:10.407Z,38.20
2022-12-29T01:19:38.670Z,38.10
2022-12-29T01:22:06.574Z,38.00
2022-12-29T01:24:35.315Z,38.70
2022-12-29T01:27:03.250Z,39.20
2022-12-29T01:29:31.563Z,39.40
2022-12-29T01:31:59.534Z,39.50
2022-12-29T01:34:28.863Z,39.50
2022-12-29T01:36:56.820Z,39.40
2022-12-29T01:39:24.815Z,38.50
2022-12-29T01:41:52.761Z,38.40
2022-12-29T01:44:50.442Z,38.40
2022-12-29T01:47:28.892Z,38.50
2022-12-29T01:50:00.850Z,38.30
2022-12-29T01:52:33.883Z,38.20
2022-12-29T01:55:05.209Z,38.70
2022-12-29T01:57:38.742Z,38.80
2022-12-29T02:00:09.366Z,38.70
2022-12-29T02:02:46.751Z,38.60
2022-12-29T02:05:24.127Z,38.30
2022-12-29T02:07:53.614Z,38.10
2022-12-29T02:10:23.699Z,37.90
2022-12-29T02:12:51.690Z,37.40
2022-12-29T02:15:20.883Z,37.80
2022-12-29T02:18:10.966Z,38.10
2022-12-29T02:21:17.885Z,37.40
2022-12-29T02:24:15.200Z,37.60
2022-12-29T02:27:03.589Z,37.50
2022-12-29T02:30:04.226Z,37.60
2022-12-29T02:32:40.676Z,37.30
2022-12-29T02:35:16.431Z,37.30
2022-12-29T02:37:58.067Z,37.60
2022-12-29T02:40:33.114Z,37.90
2022-12-29T02:43:09.227Z,38.30
2022-12-29T02:45:50.180Z,38.30
2022-12-29T02:48:26.236Z,38.70
2022-12-29T02:51:00.720Z,38.70
2022-12-29T02:53:48.102Z,39.30
2022-12-29T02:56:16.100Z,40.00
2022-12-29T02:58:44.243Z,39.60
2022-12-29T03:01:31.341Z,39.50
2022-12-29T03:04:23.038Z,39.50
2022-12-29T03:06:58.224Z,39.80
2022-12-29T03:09:38.381Z,39.50
2022-12-29T03:12:19.293Z,39.10
2022-12-29T03:15:12.212Z,39.30
2022-12-29T03:17:50.898Z,40.20
2022-12-29T03:20:23.849Z,40.10
2022-12-29T03:23:01.336Z,40.30
2022-12-29T03:25:32.989Z,41.10
2022-12-29T03:28:08.335Z,41.60
2022-12-29T03:30:43.460Z,41.20
2022-12-29T03:33:19.252Z,41.90
2022-12-29T03:35:52.709Z,42.40
2022-12-29T03:38:25.085Z,42.20
2022-12-29T03:40:58.748Z,41.60
2022-12-29T03:43:30.130Z,40.80
2022-12-29T03:45:58.676Z,40.50
2022-12-29T03:48:26.712Z,40.20
2022-12-29T03:50:58.225Z,39.90
2022-12-29T03:53:26.423Z,39.50
2022-12-29T03:55:54.935Z,40.00
2022-12-29T03:58:23.814Z,40.30
2022-12-29T04:01:03.352Z,40.00
2022-12-29T04:03:35.061Z,39.60
2022-12-29T04:06:05.921Z,39.60
2022-12-29T04:09:02.809Z,39.70
2022-12-29T04:11:34.952Z,39.80
2022-12-29T04:14:05.093Z,39.70
2022-12-29T04:16:36.553Z,39.90
2022-12-29T04:19:05.913Z,40.20
2022-12-29T04:21:36.502Z,39.80
2022-12-29T04:24:07.324Z,39.60
2022-12-29T04:26:39.720Z,40.10
2022-12-29T04:29:26.439Z,40.00
2022-12-29T04:32:17.346Z,39.90
2022-12-29T04:34:50.556Z,39.30
2022-12-29T04:37:21.136Z,38.80
2022-12-29T04:39:49.642Z,38.70
2022-12-29T04:42:18.216Z,38.70
2022-12-29T04:44:46.579Z,38.60
2022-12-29T04:47:20.325Z,38.70
2022-12-29T04:49:57.372Z,40.20
2022-12-29T04:52:41.859Z,40.60
2022-12-29T04:55:11.991Z,40.70
2022-12-29T04:57:41.475Z,42.40
2022-12-29T05:00:12.131Z,42.40
2022-12-29T05:02:40.554Z,42.40
2022-12-29T05:05:09.472Z,42.80
2022-12-29T05:07:43.602Z,43.10
2022-12-29T05:10:12.432Z,43.20
2022-12-29T05:12:40.878Z,42.90
2022-12-29T05:15:10.559Z,42.60
2022-12-29T05:18:16.213Z,42.40
2022-12-29T05:20:44.630Z,41.80
2022-12-29T05:23:14.492Z,41.10
2022-12-29T05:25:46.053Z,40.60
2022-12-29T05:28:22.378Z,40.20
2022-12-29T05:30:54.015Z,40.30
2022-12-29T05:33:22.529Z,40.50
2022-12-29T05:35:52.508Z,40.10
2022-12-29T05:38:23.104Z,41.20
2022-12-29T05:40:51.274Z,41.30
2022-12-29T05:43:48.656Z,41.40
2022-12-29T05:46:35.188Z,42.00
2022-12-29T05:49:26.084Z,42.00
2022-12-29T05:52:44.497Z,42.00
2022-12-29T05:55:14.389Z,42.30
2022-12-29T05:57:44.771Z,42.40
2022-12-29T06:00:17.096Z,42.90
2022-12-29T06:02:50.046Z,42.70
2022-12-29T06:05:20.677Z,43.30
2022-12-29T06:07:49.257Z,44.00
2022-12-29T06:10:20.383Z,44.00
2022-12-29T06:13:02.706Z,43.70
2022-12-29T06:15:32.908Z,44.20
2022-12-29T06:18:01.286Z,43.50
2022-12-29T06:20:29.619Z,43.10
2022-12-29T06:22:57.781Z,43.00
2022-12-29T06:25:27.261Z,42.80
2022-12-29T06:27:55.432Z,42.40
2022-12-29T06:30:23.655Z,42.50
2022-12-29T06:32:52.386Z,43.60
2022-12-29T06:35:21.237Z,42.90
2022-12-29T06:37:53.423Z,42.50
2022-12-29T06:40:22.634Z,42.20
2022-12-29T06:43:10.808Z,41.60
2022-12-29T06:45:42.114Z,40.90
2022-12-29T06:48:10.348Z,40.50
2022-12-29T06:50:41.320Z,40.60
2022-12-29T06:53:09.434Z,40.30
2022-12-29T06:55:37.618Z,40.80
2022-12-29T06:58:05.813Z,41.10
2022-12-29T07:00:35.643Z,40.90
2022-12-29T07:03:03.959Z,41.40
2022-12-29T07:05:33.548Z,42.70
2022-12-29T07:08:01.975Z,42.70
2022-12-29T07:10:30.266Z,43.20
2022-12-29T07:13:00.016Z,44.10
2022-12-29T07:15:28.236Z,43.50
2022-12-29T07:17:57.971Z,43.50
2022-12-29T07:20:27.216Z,42.90
2022-12-29T07:22:55.988Z,43.60
2022-12-29T07:25:24.555Z,43.30
2022-12-29T07:27:52.716Z,43.30
2022-12-29T07:30:21.107Z,43.60
2022-12-29T07:32:49.394Z,43.20
2022-12-29T07:35:21.235Z,43.50
2022-12-29T07:37:49.342Z,44.10
2022-12-29T07:40:17.573Z,43.40
2022-12-29T07:42:45.674Z,43.50
2022-12-29T07:45:17.003Z,43.40
2022-12-29T07:48:05.249Z,43.80
2022-12-29T07:50:35.058Z,43.40
2022-12-29T07:53:04.357Z,43.10
2022-12-29T07:55:32.560Z,44.40
2022-12-29T07:58:00.782Z,45.00
2022-12-29T08:00:28.856Z,44.40
2022-12-29T08:02:56.830Z,44.60
2022-12-29T08:05:24.871Z,44.40
2022-12-29T08:07:54.138Z,43.50
2022-12-29T08:10:22.072Z,42.90
2022-12-29T08:12:49.988Z,42.50
2022-12-29T08:15:18.167Z,42.40
2022-12-29T08:17:46.102Z,42.70
2022-12-29T08:20:14.066Z,42.70
2022-12-29T08:22:42.770Z,42.90
2022-12-29T08:25:12.130Z,44.10
2022-12-29T08:27:40.072Z,43.90
2022-12-29T08:30:09.334Z,44.30
2022-12-29T08:32:37.326Z,44.20
2022-12-29T08:35:06.065Z,44.30
2022-12-29T08:37:34.750Z,45.40
2022-12-29T08:40:04.788Z,45.40
2022-12-29T08:42:34.964Z,44.50
2022-12-29T08:45:04.752Z,43.90
2022-12-29T08:47:32.691Z,42.80
2022-12-29T08:50:00.620Z,43.00
2022-12-29T08:52:28.525Z,42.00
2022-12-29T08:54:56.702Z,42.40
2022-12-29T08:57:24.790Z,41.00
2022-12-29T09:00:09.126Z,41.10
2022-12-29T09:02:38.396Z,40.10
2022-12-29T09:05:07.516Z,39.40
2022-12-29T09:07:35.563Z,38.00
2022-12-29T09:10:03.580Z,38.40
2022-12-29T09:12:36.124Z,37.80
2022-12-29T09:15:05.718Z,37.30
2022-12-29T09:17:45.105Z,36.50
2022-12-29T09:20:13.875Z,36.90
2022-12-29T09:22:41.901Z,36.30
2022-12-29T09:25:11.059Z,35.40
2022-12-29T09:27:39.429Z,36.60
2022-12-29T09:30:10.172Z,35.60
2022-12-29T09:32:45.498Z,35.30
2022-12-29T09:35:14.025Z,35.60
2022-12-29T09:37:42.013Z,35.10
2022-12-29T09:40:25.865Z,34.70
2022-12-29T09:43:24.419Z,35.00
2022-12-29T09:46:01.533Z,34.80
2022-12-29T09:48:36.698Z,35.10
2022-12-29T09:51:10.832Z,35.20
2022-12-29T09:53:41.839Z,35.10
2022-12-29T09:56:15.320Z,34.90
2022-12-29T09:58:49.630Z,35.20
2022-12-29T10:01:28.361Z,35.10
2022-12-29T10:04:00.184Z,35.30
2022-12-29T10:06:34.085Z,34.60
2022-12-29T10:09:10.317Z,35.10
2022-12-29T10:11:54.568Z,34.10
2022-12-29T10:14:39.475Z,35.60
2022-12-29T10:17:20.866Z,35.80
2022-12-29T10:20:00.626Z,36.10
2022-12-29T10:22:51.176Z,36.30
2022-12-29T10:25:22.315Z,36.60
2022-12-29T10:27:51.849Z,36.50
2022-12-29T10:30:20.185Z,37.10
2022-12-29T10:32:53.755Z,37.00
2022-12-29T10:35:25.513Z,37.10
2022-12-29T10:38:00.238Z,38.30
2022-12-29T10:40:33.852Z,36.70
2022-12-29T10:43:04.388Z,37.00
2022-12-29T10:45:35.008Z,36.60
2022-12-29T10:48:11.010Z,36.80
2022-12-29T10:50:43.780Z,36.20
2022-12-29T10:53:20.867Z,36.00
2022-12-29T10:55:49.384Z,36.00
2022-12-29T10:58:18.460Z,35.20
2022-12-29T11:00:51.918Z,35.60
2022-12-29T11:03:50.200Z,35.60
2022-12-29T11:06:24.757Z,35.60
2022-12-29T11:08:55.932Z,34.80
2022-12-29T11:11:29.285Z,33.70
2022-12-29T11:14:04.382Z,33.70
2022-12-29T11:16:33.851Z,34.20
2022-12-29T11:19:02.610Z,35.30
2022-12-29T11:21:41.060Z,37.00
2022-12-29T11:24:24.886Z,35.30
2022-12-29T11:26:58.133Z,34.80
2022-12-29T11:29:28.594Z,33.10
2022-12-29T11:32:00.098Z,33.50
2022-12-29T11:34:32.437Z,33.40
2022-12-29T11:37:05.061Z,33.90
2022-12-29T11:39:37.228Z,33.70
2022-12-29T11:42:10.486Z,34.80
2022-12-29T11:44:43.369Z,33.50
2022-12-29T11:47:21.621Z,33.70
2022-12-29T11:49:53.169Z,33.70
2022-12-29T11:52:26.320Z,34.40
2022-12-29T11:54:55.222Z,34.90
2022-12-29T11:57:24.908Z,35.70
2022-12-29T11:59:56.063Z,36.10
2022-12-29T12:02:44.554Z,36.60
2022-12-29T12:05:23.181Z,36.70
2022-12-29T12:07:58.977Z,37.00
2022-12-29T12:10:33.750Z,35.90
2022-12-29T12:13:07.221Z,36.10
2022-12-29T12:15:47.461Z,35.90
2022-12-29T12:18:23.552Z,35.90
2022-12-29T12:20:56.349Z,35.60
2022-12-29T12:23:46.364Z,35.90
2022-12-29T12:26:17.939Z,36.90
2022-12-29T12:28:55.096Z,36.20
2022-12-29T12:31:40.178Z,35.60
2022-12-29T12:34:15.675Z,36.20
2022-12-29T12:37:06.340Z,36.20
2022-12-29T12:39:46.059Z,36.60
2022-12-29T12:42:26.714Z,35.80
2022-12-29T12:45:05.204Z,36.70
2022-12-29T12:47:51.029Z,37.00
2022-12-29T12:50:44.811Z,36.80
2022-12-29T12:53:35.896Z,37.60
2022-12-29T12:56:28.494Z,37.80
2022-12-29T12:59:09.599Z,37.70
2022-12-29T13:01:50.709Z,38.30
2022-12-29T13:04:44.871Z,38.70
2022-12-29T13:07:24.803Z,38.90
2022-12-29T13:10:14.111Z,39.50
2022-12-29T13:12:51.813Z,38.80
2022-12-29T13:15:32.433Z,38.80
2022-12-29T13:18:12.237Z,38.80
2022-12-29T13:21:04.735Z,38.30
2022-12-29T13:23:42.668Z,38.50
2022-12-29T13:26:21.251Z,39.00
2022-12-29T13:28:57.594Z,38.90
2022-12-29T13:31:33.882Z,39.20
2022-12-29T13:34:16.828Z,39.10
2022-12-29T13:36:47.920Z,39.20
2022-12-29T13:39:22.979Z,39.00
2022-12-29T13:41:53.391Z,39.60
2022-12-29T13:44:29.636Z,39.40
2022-12-29T13:47:07.014Z,38.70
2022-12-29T13:49:35.687Z,38.60
2022-12-29T13:52:14.717Z,38.10
2022-12-29T13:54:47.871Z,37.90
2022-12-29T13:57:27.793Z,37.70
2022-12-29T14:00:03.793Z,37.50
2022-12-29T14:02:52.523Z,37.20
2022-12-29T14:05:32.195Z,36.90
2022-12-29T14:08:02.026Z,36.40
2022-12-29T14:10:36.111Z,36.70
2022-12-29T14:13:13.984Z,36.20
2022-12-29T14:15:46.059Z,36.20
2022-12-29T14:18:17.046Z,36.80
2022-12-29T14:20:56.926Z,37.60
2022-12-29T14:23:30.985Z,37.50
2022-12-29T14:26:11.293Z,37.90
2022-12-29T14:28:43.851Z,38.30
2022-12-29T14:31:41.999Z,39.10
2022-12-29T14:34:41.186Z,39.70
2022-12-29T14:37:26.112Z,40.40
2022-12-29T14:40:06.161Z,40.80
2022-12-29T14:42:34.652Z,40.90
2022-12-29T14:45:04.675Z,41.00
2022-12-29T14:47:37.711Z,41.40
2022-12-29T14:50:08.588Z,41.40
2022-12-29T14:52:48.174Z,41.10
2022-12-29T14:55:39.474Z,40.70
2022-12-29T14:58:14.050Z,41.00
2022-12-29T15:00:43.584Z,40.80
2022-12-29T15:03:21.650Z,40.30
2022-12-29T15:05:52.570Z,40.00
2022-12-29T15:08:24.305Z,40.60
2022-12-29T15:10:57.307Z,40.30
2022-12-29T15:13:34.766Z,40.00
2022-12-29T15:16:02.813Z,40.20
2022-12-29T15:18:33.738Z,40.40
2022-12-29T15:21:03.837Z,40.00
2022-12-29T15:23:34.557Z,39.60
2022-12-29T15:26:04.770Z,40.00
2022-12-29T15:28:42.595Z,39.90
2022-12-29T15:31:14.480Z,40.40
2022-12-29T15:33:48.178Z,41.10
2022-12-29T15:36:21.253Z,40.90
2022-12-29T15:38:50.334Z,41.80
2022-12-29T15:41:28.944Z,42.40
2022-12-29T15:44:09.174Z,43.10
2022-12-29T15:46:38.111Z,43.20
2022-12-29T15:49:09.451Z,43.90
2022-12-29T15:51:40.567Z,43.40
2022-12-29T15:54:17.543Z,43.60
2022-12-29T15:56:46.735Z,44.20
2022-12-29T15:59:25.503Z,44.40
2022-12-29T16:01:55.530Z,43.60
2022-12-29T16:04:25.332Z,43.80
2022-12-29T16:06:58.273Z,43.50
2022-12-29T16:09:38.774Z,44.20
2022-12-29T16:12:08.929Z,43.80
2022-12-29T16:14:42.842Z,44.40
2022-12-29T16:17:16.639Z,44.90
2022-12-29T16:19:51.645Z,45.80
2022-12-29T16:22:26.756Z,45.20
2022-12-29T16:25:04.163Z,44.90
2022-12-29T16:27:40.186Z,44.80
2022-12-29T16:30:18.822Z,44.80
2022-12-29T16:32:48.499Z,45.70
2022-12-29T16:35:21.333Z,45.60
2022-12-29T16:37:50.582Z,45.10
2022-12-29T16:40:32.719Z,44.90
2022-12-29T16:43:23.595Z,44.90
2022-12-29T16:46:20.461Z,44.70
2022-12-29T16:48:51.334Z,44.90
2022-12-29T16:51:27.072Z,44.60
2022-12-29T16:53:56.259Z,45.10
2022-12-29T16:56:27.695Z,45.00
2022-12-29T16:59:05.687Z,45.70
2022-12-29T17:01:39.403Z,46.30
2022-12-29T17:04:09.800Z,46.10
2022-12-29T17:06:39.755Z,45.40
2022-12-29T17:09:19.651Z,44.70
2022-12-29T17:12:05.390Z,44.30
2022-12-29T17:14:45.096Z,43.90
2022-12-29T17:17:22.700Z,43.90
2022-12-29T17:19:53.553Z,43.80
2022-12-29T17:22:30.866Z,43.30
2022-12-29T17:24:59.898Z,42.50
2022-12-29T17:27:38.413Z,42.10
2022-12-29T17:30:11.864Z,42.10
2022-12-29T17:32:40.017Z,41.80
2022-12-29T17:35:14.155Z,41.50
2022-12-29T17:37:43.837Z,41.20
2022-12-29T17:40:19.015Z,40.80
2022-12-29T17:42:48.837Z,40.40
2022-12-29T17:45:19.141Z,39.80
2022-12-29T17:47:47.626Z,39.70
2022-12-29T17:50:17.604Z,39.50
2022-12-29T17:52:50.423Z,40.10
2022-12-29T17:55:20.961Z,40.10
2022-12-29T17:57:49.047Z,40.50
2022-12-29T18:00:19.101Z,40.80
2022-12-29T18:02:47.681Z,40.60
2022-12-29T18:05:20.782Z,40.50
2022-12-29T18:07:50.586Z,40.10
2022-12-29T18:10:18.787Z,40.30
2022-12-29T18:12:48.882Z,40.10
2022-12-29T18:15:23.925Z,40.50
2022-12-29T18:17:54.977Z,40.10
2022-12-29T18:20:22.920Z,40.60
2022-12-29T18:22:52.217Z,40.70
2022-12-29T18:25:26.890Z,40.70
2022-12-29T18:27:55.063Z,40.80
2022-12-29T18:30:23.103Z,40.80
2022-12-29T18:32:51.041Z,40.80
2022-12-29T18:35:24.069Z,41.20
2022-12-29T18:37:53.344Z,41.20
2022-12-29T18:40:21.275Z,41.40
2022-12-29T18:42:49.251Z,41.30
2022-12-29T18:45:20.181Z,41.00
2022-12-29T18:47:48.258Z,40.80
2022-12-29T18:50:19.291Z,40.50
2022-12-29T18:52:47.227Z,40.60
2022-12-29T18:55:18.739Z,40.70
2022-12-29T18:57:46.868Z,40.50
2022-12-29T19:00:18.980Z,40.60
2022-12-29T19:02:47.604Z,40.90
2022-12-29T19:05:21.774Z,41.00
2022-12-29T19:07:50.305Z,41.10
2022-12-29T19:10:20.494Z,40.70
2022-12-29T19:12:49.189Z,40.90
2022-12-29T19:15:23.359Z,41.40
2022-12-29T19:18:08.542Z,41.60
2022-12-29T19:20:42.661Z,41.60
2022-12-29T19:23:12.214Z,41.40
2022-12-29T19:25:42.011Z,41.60
2022-12-29T19:28:18.776Z,41.70
2022-12-29T19:30:51.681Z,42.10
2022-12-29T19:33:21.264Z,41.60
2022-12-29T19:35:49.292Z,42.10
2022-12-29T19:38:17.520Z,42.00
2022-12-29T19:40:51.228Z,41.80
2022-12-29T19:43:22.528Z,41.30
2022-12-29T19:45:51.309Z,40.70
2022-12-29T19:48:21.721Z,40.40
2022-12-29T19:50:50.047Z,40.60
2022-12-29T19:53:18.217Z,40.90
2022-12-29T19:55:46.620Z,40.90
2022-12-29T19:58:16.393Z,40.80
2022-12-29T20:00:45.223Z,40.20
2022-12-29T20:03:13.799Z,39.90
2022-12-29T20:05:41.891Z,39.90
2022-12-29T20:08:09.787Z,40.60
2022-12-29T20:10:37.715Z,40.60
2022-12-29T20:13:06.021Z,40.50
2022-12-29T20:15:38.593Z,40.90
2022-12-29T20:18:13.719Z,41.20
2022-12-29T20:20:42.646Z,41.70
2022-12-29T20:23:10.897Z,41.60
2022-12-29T20:25:47.265Z,42.10
2022-12-29T20:28:16.936Z,42.10
2022-12-29T20:30:56.561Z,42.80
2022-12-29T20:33:24.736Z,42.70
2022-12-29T20:35:53.158Z,43.80
2022-12-29T20:38:21.616Z,43.90
2022-12-29T20:40:49.895Z,43.70
2022-12-29T20:43:18.191Z,43.80
2022-12-29T20:45:47.900Z,43.40
2022-12-29T20:48:15.883Z,43.40
2022-12-29T20:50:44.076Z,43.60
2022-12-29T20:53:12.582Z,44.20
2022-12-29T20:55:41.779Z,44.40
2022-12-29T20:58:26.013Z,44.40
2022-12-29T21:00:56.394Z,43.80
2022-12-29T21:03:24.655Z,42.70
2022-12-29T21:05:53.737Z,42.20
2022-12-29T21:08:22.094Z,41.70
2022-12-29T21:10:51.379Z,41.20
2022-12-29T21:13:19.760Z,41.00
2022-12-29T21:15:48.122Z,40.50
2022-12-29T21:18:19.453Z,40.20
2022-12-29T21:20:56.548Z,40.00
2022-12-29T21:23:25.085Z,39.80
2022-12-29T21:25:53.685Z,39.80
2022-12-29T21:28:23.742Z,39.20
2022-12-29T21:30:52.356Z,38.90
2022-12-29T21:33:22.625Z,39.40
2022-12-29T21:35:50.578Z,40.40
2022-12-29T21:38:19.596Z,41.00
2022-12-29T21:40:47.957Z,41.50
2022-12-29T21:43:15.884Z,41.80
2022-12-29T21:45:42.859Z,41.30
2022-12-29T21:48:23.943Z,41.50
2022-12-29T21:51:13.166Z,42.80
2022-12-29T21:53:43.120Z,42.90
2022-12-29T21:56:13.401Z,43.10
2022-12-29T21:59:00.831Z,43.00
2022-12-29T22:01:48.414Z,42.90
2022-12-29T22:04:37.198Z,42.40
2022-12-29T22:07:25.289Z,42.40
2022-12-29T22:10:10.912Z,42.10
2022-12-29T22:12:56.744Z,42.60
2022-12-29T22:15:25.266Z,43.70
2022-12-29T22:17:54.855Z,43.20
2022-12-29T22:20:25.771Z,42.60
2022-12-29T22:22:55.323Z,42.90
2022-12-29T22:25:26.435Z,43.70
2022-12-29T22:27:59.307Z,44.20
2022-12-29T22:30:28.366Z,44.20
2022-12-29T22:32:58.418Z,43.70
2022-12-29T22:35:26.628Z,43.50
2022-12-29T22:37:56.015Z,43.30
2022-12-29T22:40:24.007Z,43.30
2022-12-29T22:42:51.984Z,42.90
2022-12-29T22:45:19.924Z,43.10
2022-12-29T22:47:47.835Z,42.90
2022-12-29T22:50:15.802Z,42.20
2022-12-29T22:52:43.931Z,42.60
2022-12-29T22:55:13.228Z,42.40
2022-12-29T22:57:41.495Z,42.80
2022-12-29T23:00:10.400Z,43.20
2022-12-29T23:02:38.605Z,42.90
2022-12-29T23:05:07.279Z,42.90
2022-12-29T23:07:35.976Z,43.10
2022-12-29T23:10:04.273Z,43.20
2022-12-29T23:12:33.837Z,43.40
2022-12-29T23:15:01.794Z,43.20
2022-12-29T23:17:29.969Z,43.40
2022-12-29T23:19:57.902Z,43.70
2022-12-29T23:22:25.913Z,43.80
2022-12-29T23:24:53.875Z,44.30
2022-12-29T23:27:21.819Z,45.10
2022-12-29T23:29:51.079Z,44.80
2022-12-29T23:32:19.110Z,45.70
2022-12-29T23:34:47.218Z,45.60
2022-12-29T23:37:15.156Z,45.90
2022-12-29T23:39:43.082Z,46.50
2022-12-29T23:42:12.268Z,46.40
2022-12-29T23:44:43.065Z,45.90
2022-12-29T23:47:12.961Z,46.40
2022-12-29T23:49:40.930Z,47.10
2022-12-29T23:52:08.844Z,47.20
2022-12-29T23:54:36.783Z,47.50
2022-12-29T23:57:04.785Z,47.60
2022-12-29T23:59:32.742Z,47.70
